createdAt,value
2022-12-11T00:00:09.245Z,101092.81
2022-12-11T00:05:30.156Z,101094.63
2022-12-11T00:10:51.256Z,101098.03
2022-12-11T00:16:12.538Z,101099.63
2022-12-11T00:21:34.015Z,101103.94
2022-12-11T00:26:54.383Z,101103.22
2022-12-11T00:32:15.138Z,101093.06
2022-12-11T00:37:35.945Z,101099.06
2022-12-11T00:42:56.799Z,101094.75
2022-12-11T00:48:18.651Z,101094.63
2022-12-11T00:53:39.377Z,101100.50
2022-12-11T00:59:00.159Z,101104.72
2022-12-11T01:04:20.728Z,101106.22
2022-12-11T01:10:00.281Z,101112.19
2022-12-11T01:15:23.065Z,101113.91
2022-12-11T01:20:43.688Z,101117.41
2022-12-11T01:26:13.679Z,101110.66
2022-12-11T01:31:34.575Z,101124.84
2022-12-11T01:36:55.287Z,101114.69
2022-12-11T01:42:18.917Z,101124.56
2022-12-11T01:47:39.431Z,101123.69
2022-12-11T01:53:00.046Z,101114.38
2022-12-11T01:58:24.635Z,101121.84
2022-12-11T02:03:45.033Z,101112.59
2022-12-11T02:09:10.471Z,101106.56
2022-12-11T02:14:41.401Z,101094.59
2022-12-11T02:20:21.175Z,101092.16
2022-12-11T02:25:48.023Z,101092.88
2022-12-11T02:31:23.258Z,101094.47
2022-12-11T02:36:49.233Z,101108.78
2022-12-11T02:42:11.953Z,101098.53
2022-12-11T02:47:33.922Z,101102.13
2022-12-11T02:52:56.977Z,101097.09
2022-12-11T02:58:28.218Z,101089.50
2022-12-11T03:03:49.290Z,101095.31
2022-12-11T03:09:10.362Z,101092.81
2022-12-11T03:14:31.322Z,101095.38
2022-12-11T03:20:12.002Z,101081.81
2022-12-11T03:25:44.392Z,101084.31
2022-12-11T03:31:13.328Z,101090.88
2022-12-11T03:36:38.315Z,101079.88
2022-12-11T03:42:02.893Z,101084.81
2022-12-11T03:47:27.037Z,101086.00
2022-12-11T03:52:49.017Z,101080.75
2022-12-11T03:58:09.655Z,101071.03
2022-12-11T04:03:31.044Z,101065.91
2022-12-11T04:08:52.152Z,101060.72
2022-12-11T04:14:33.210Z,101057.19
2022-12-11T04:20:12.410Z,101060.50
2022-12-11T04:25:32.991Z,101052.63
2022-12-11T04:30:53.434Z,101052.69
2022-12-11T04:36:14.993Z,101050.09
2022-12-11T04:41:37.094Z,101058.16
2022-12-11T04:46:57.921Z,101061.50
2022-12-11T04:52:18.252Z,101057.34
2022-12-11T04:57:39.434Z,101047.28
2022-12-11T05:02:59.967Z,101049.69
2022-12-11T05:08:21.588Z,101046.34
2022-12-11T05:13:43.093Z,101044.56
2022-12-11T05:19:03.970Z,101046.94
2022-12-11T05:24:24.812Z,101050.38
2022-12-11T05:29:45.623Z,101061.09
2022-12-11T05:35:06.510Z,101054.28
2022-12-11T05:40:27.550Z,101052.41
2022-12-11T05:45:48.374Z,101043.94
2022-12-11T05:51:11.065Z,101048.78
2022-12-11T05:56:34.447Z,101042.88
2022-12-11T06:01:55.332Z,101051.22
2022-12-11T06:07:15.671Z,101055.34
2022-12-11T06:12:36.543Z,101055.31
2022-12-11T06:17:56.960Z,101064.19
2022-12-11T06:23:17.523Z,101065.03
2022-12-11T06:28:38.394Z,101063.53
2022-12-11T06:33:59.921Z,101076.91
2022-12-11T06:39:20.478Z,101076.28
2022-12-11T06:44:41.310Z,101069.44
2022-12-11T06:50:02.358Z,101080.53
2022-12-11T06:55:23.417Z,101077.00
2022-12-11T07:00:43.966Z,101076.25
2022-12-11T07:06:05.407Z,101071.00
2022-12-11T07:11:25.827Z,101070.69
2022-12-11T07:16:46.478Z,101067.41
2022-12-11T07:22:07.423Z,101077.59
2022-12-11T07:27:29.119Z,101075.44
2022-12-11T07:32:49.765Z,101072.06
2022-12-11T07:38:10.402Z,101061.75
2022-12-11T07:43:32.192Z,101064.00
2022-12-11T07:48:53.155Z,101058.63
2022-12-11T07:54:16.853Z,101056.47
2022-12-11T07:59:37.613Z,101050.28
2022-12-11T08:04:58.133Z,101055.06
2022-12-11T08:10:19.746Z,101054.97
2022-12-11T08:15:40.281Z,101059.38
2022-12-11T08:21:09.450Z,101060.16
2022-12-11T08:26:34.069Z,101063.56
2022-12-11T08:31:55.370Z,101062.28
2022-12-11T08:37:16.150Z,101063.44
2022-12-11T08:42:36.870Z,101056.47
2022-12-11T08:47:59.061Z,101060.03
2022-12-11T08:53:19.977Z,101063.09
2022-12-11T08:58:41.033Z,101067.50
2022-12-11T09:04:02.195Z,101068.03
2022-12-11T09:09:22.795Z,101069.84
2022-12-11T09:14:43.537Z,101075.28
2022-12-11T09:20:05.519Z,101073.41
2022-12-11T09:25:26.314Z,101064.31
2022-12-11T09:30:47.137Z,101050.16
2022-12-11T09:36:08.918Z,101056.31
2022-12-11T09:41:59.513Z,101057.97
2022-12-11T09:47:27.714Z,101052.97
2022-12-11T09:53:10.122Z,101048.88
2022-12-11T09:58:52.238Z,101045.59
2022-12-11T10:04:38.154Z,101055.00
2022-12-11T10:10:09.119Z,101050.94
2022-12-11T10:15:43.840Z,101052.63
2022-12-11T10:21:04.745Z,101047.72
2022-12-11T10:26:24.997Z,101052.66
2022-12-11T10:31:57.816Z,101038.44
2022-12-11T10:37:18.411Z,101036.41
2022-12-11T10:42:45.434Z,101030.81
2022-12-11T10:48:10.974Z,101030.88
2022-12-11T10:53:33.392Z,101027.59
2022-12-11T10:58:56.502Z,101034.50
2022-12-11T11:04:37.573Z,101029.56
2022-12-11T11:10:10.109Z,101033.00
2022-12-11T11:15:31.298Z,101024.09
2022-12-11T11:20:52.125Z,101031.06
2022-12-11T11:26:13.548Z,101024.41
2022-12-11T11:31:35.397Z,101026.09
2022-12-11T11:36:58.663Z,101015.69
2022-12-11T11:42:27.746Z,101007.16
2022-12-11T11:47:58.755Z,101001.28
2022-12-11T11:53:37.426Z,100984.25
2022-12-11T11:59:18.900Z,100977.06
2022-12-11T12:04:39.787Z,100970.16
2022-12-11T12:10:16.269Z,100967.56
2022-12-11T12:15:43.957Z,100979.09
2022-12-11T12:21:24.492Z,100982.13
2022-12-11T12:27:29.163Z,100993.84
2022-12-11T12:33:15.017Z,100981.72
2022-12-11T12:38:55.990Z,100997.31
2022-12-11T12:44:23.633Z,101000.53
2022-12-11T12:49:50.225Z,100999.44
2022-12-11T12:55:14.102Z,100994.00
2022-12-11T13:00:41.498Z,100993.09
2022-12-11T13:06:13.532Z,101002.13
2022-12-11T13:11:36.308Z,100999.63
2022-12-11T13:17:21.470Z,101000.03
2022-12-11T13:23:07.573Z,100994.41
2022-12-11T13:28:32.970Z,100991.69
2022-12-11T13:33:57.065Z,101000.75
2022-12-11T13:39:22.469Z,100989.84
2022-12-11T13:44:47.972Z,100991.34
2022-12-11T13:50:23.939Z,100999.81
2022-12-11T13:55:45.204Z,101001.56
2022-12-11T14:01:11.179Z,100986.28
2022-12-11T14:06:34.501Z,100996.25
2022-12-11T14:11:57.619Z,100994.69
2022-12-11T14:17:28.157Z,100982.13
2022-12-11T14:22:48.844Z,100998.13
2022-12-11T14:28:18.260Z,100995.50
2022-12-11T14:33:46.954Z,100988.91
2022-12-11T14:39:17.408Z,100993.25
2022-12-11T14:44:51.902Z,100999.31
2022-12-11T14:50:33.993Z,100994.41
2022-12-11T14:55:58.128Z,100998.81
2022-12-11T15:01:28.722Z,101003.56
2022-12-11T15:06:51.845Z,101002.53
2022-12-11T15:12:16.608Z,101003.34
2022-12-11T15:17:37.462Z,100999.13
2022-12-11T15:23:01.460Z,101007.38
2022-12-11T15:28:34.734Z,101003.06
2022-12-11T15:33:55.370Z,101004.75
2022-12-11T15:39:16.170Z,101008.06
2022-12-11T15:44:36.639Z,101022.22
2022-12-11T15:50:07.326Z,101019.06
2022-12-11T15:55:34.842Z,101015.66
2022-12-11T16:00:55.909Z,101010.69
2022-12-11T16:06:16.524Z,101010.81
2022-12-11T16:11:37.158Z,101010.84
2022-12-11T16:16:57.859Z,101001.78
2022-12-11T16:22:20.958Z,101009.50
2022-12-11T16:27:41.731Z,101007.69
2022-12-11T16:33:10.196Z,101000.84
2022-12-11T16:38:32.691Z,101002.53
2022-12-11T16:43:54.058Z,101000.91
2022-12-11T16:49:14.583Z,101008.41
2022-12-11T16:54:35.501Z,101001.56
2022-12-11T16:59:55.959Z,101000.72
2022-12-11T17:05:16.807Z,101009.94
2022-12-11T17:10:42.090Z,101011.66
2022-12-11T17:16:16.564Z,101004.06
2022-12-11T17:21:37.049Z,101025.06
2022-12-11T17:26:57.574Z,101032.50
2022-12-11T17:32:18.458Z,101029.09
2022-12-11T17:37:38.950Z,101027.16
2022-12-11T17:42:59.534Z,101024.53
2022-12-11T17:48:24.296Z,101017.78
2022-12-11T17:53:44.819Z,101026.25
2022-12-11T17:59:05.339Z,101038.00
2022-12-11T18:04:26.152Z,101032.22
2022-12-11T18:09:46.791Z,101033.03
2022-12-11T18:15:08.053Z,101031.28
2022-12-11T18:20:31.420Z,101038.94
2022-12-11T18:25:52.551Z,101041.47
2022-12-11T18:31:13.584Z,101040.41
2022-12-11T18:36:34.722Z,101045.28
2022-12-11T18:42:30.728Z,101043.44
2022-12-11T18:47:37.242Z,101044.16
2022-12-11T18:52:58.007Z,101034.94
2022-12-11T18:58:19.340Z,101037.38
2022-12-11T19:03:40.299Z,101040.63
2022-12-11T19:09:01.444Z,101032.19
2022-12-11T19:14:22.332Z,101035.56
2022-12-11T19:19:46.018Z,101039.63
2022-12-11T19:25:07.204Z,101040.41
2022-12-11T19:30:28.076Z,101038.78
2022-12-11T19:35:48.807Z,101047.19
2022-12-11T19:41:15.349Z,101057.88
2022-12-11T19:46:35.980Z,101061.78
2022-12-11T19:51:56.693Z,101062.19
2022-12-11T19:57:17.330Z,101059.53
2022-12-11T20:02:37.639Z,101051.69
2022-12-11T20:08:27.355Z,101053.91
2022-12-11T20:13:45.583Z,101073.78
2022-12-11T20:19:06.176Z,101081.03
2022-12-11T20:24:26.634Z,101079.34
2022-12-11T20:29:47.007Z,101074.25
2022-12-11T20:35:08.155Z,101075.63
2022-12-11T20:40:29.074Z,101075.63
2022-12-11T20:45:50.127Z,101076.97
2022-12-11T20:51:12.682Z,101080.09
2022-12-11T20:56:33.486Z,101080.25
2022-12-11T21:01:54.538Z,101083.13
2022-12-11T21:07:14.931Z,101085.38
2022-12-11T21:12:38.243Z,101088.31
2022-12-11T21:17:59.143Z,101085.59
2022-12-11T21:23:19.562Z,101081.38
2022-12-11T21:28:40.073Z,101083.63
2022-12-11T21:34:00.516Z,101076.69
2022-12-11T21:39:21.201Z,101081.66
2022-12-11T21:45:37.676Z,101085.94
2022-12-11T21:50:23.418Z,101074.69
2022-12-11T21:55:43.817Z,101068.34
2022-12-11T22:01:06.018Z,101078.25
2022-12-11T22:06:27.448Z,101073.22
2022-12-11T22:11:48.148Z,101082.41
2022-12-11T22:17:08.948Z,101089.13
2022-12-11T22:22:29.498Z,101096.91
2022-12-11T22:27:50.405Z,101097.72
2022-12-11T22:33:12.248Z,101093.63
2022-12-11T22:38:33.973Z,101093.63
2022-12-11T22:43:55.200Z,101085.22
2022-12-11T22:49:15.909Z,101097.41
2022-12-11T22:54:40.927Z,101095.03
2022-12-11T23:00:02.559Z,101099.63
2022-12-11T23:05:23.101Z,101104.91
2022-12-11T23:10:44.065Z,101110.25
2022-12-11T23:16:04.727Z,101096.16
2022-12-11T23:21:27.597Z,101097.91
2022-12-11T23:26:48.287Z,101103.91
2022-12-11T23:32:08.912Z,101100.03
2022-12-11T23:37:29.658Z,101099.06
2022-12-11T23:42:49.914Z,101096.44
2022-12-11T23:48:13.005Z,101090.44
2022-12-11T23:53:33.865Z,101097.91
2022-12-11T23:58:54.626Z,101112.16
